Time;durP1;ratioP1;P1;durP2;ratioP2;P2;SDS_P1;SDS_P2;PMS_P1;PMS_P2;Temp;Humidity;BMP_temperature;BMP_pressure;BME280_temperature;BME280_humidity;BME280_pressure;Samples;Min_cycle;Max_cycle;Signal;HPM_P1;HPM_P2
2022/08/18 00:01:53;;;;;;;24.00;18.50;;;;;;;19.65;100.00;100470.40;107569;1248;62079;-80
2022/08/18 00:04:22;;;;;;;26.80;19.30;;;;;;;19.66;100.00;100473.27;107412;1251;60975;-82
2022/08/18 00:07:08;;;;;;;24.10;19.00;;;;;;;19.66;100.00;100471.95;107326;1251;74312;-83
2022/08/18 00:09:39;;;;;;;25.30;18.40;;;;;;;19.66;100.00;100479.01;107573;1249;72338;-85
2022/08/18 00:12:22;;;;;;;24.80;18.60;;;;;;;19.66;100.00;100480.19;107466;1251;71104;-84
2022/08/18 00:14:53;;;;;;;25.10;19.20;;;;;;;19.68;100.00;100486.70;107192;1251;74250;-80
2022/08/18 00:17:22;;;;;;;27.40;18.10;;;;;;;19.70;99.97;100488.42;107269;1251;59675;-79
2022/08/18 00:19:52;;;;;;;24.30;19.30;;;;;;;19.72;99.95;100481.95;107169;1251;60620;-80
2022/08/18 00:22:22;;;;;;;25.50;18.90;;;;;;;19.75;100.00;100482.73;107765;1247;65367;-81
2022/08/18 00:24:54;;;;;;;22.80;16.30;;;;;;;19.74;100.00;100480.67;107440;1247;72224;-81
2022/08/18 00:27:29;;;;;;;23.70;16.80;;;;;;;19.77;99.87;100484.06;107388;1250;69221;-82
2022/08/18 00:30:01;;;;;;;24.60;19.70;;;;;;;19.76;99.84;100482.05;107258;1251;62322;-80
2022/08/18 00:32:51;;;;;;;25.70;18.60;;;;;;;19.72;99.96;100486.21;107249;1250;59601;-78
2022/08/18 00:35:29;;;;;;;24.20;18.80;;;;;;;19.68;100.00;100493.73;107198;1248;61116;-78
2022/08/18 00:38:02;;;;;;;24.30;19.10;;;;;;;19.66;100.00;100493.31;107404;1250;64285;-78
2022/08/18 00:40:48;;;;;;;27.20;19.10;;;;;;;19.62;100.00;100491.45;107286;1247;71512;-80
2022/08/18 00:43:41;;;;;;;26.90;19.00;;;;;;;19.62;100.00;100499.79;107344;1247;71037;-80
2022/08/18 00:46:15;;;;;;;;;;;;;;;19.59;100.00;100497.81;107510;1247;74339;-81
2022/08/18 00:48:45;;;;;;;27.30;19.40;;;;;;;19.58;100.00;100494.20;107614;1250;59645;-80
2022/08/18 00:51:42;;;;;;;26.90;19.70;;;;;;;19.59;100.00;100492.36;107567;1248;58031;-79
2022/08/18 00:54:26;;;;;;;29.50;18.90;;;;;;;19.59;100.00;100498.09;107468;1248;74293;-80
2022/08/18 00:57:01;;;;;;;28.90;19.70;;;;;;;19.57;100.00;100492.17;107446;1247;72335;-79
2022/08/18 00:59:47;;;;;;;27.40;19.30;;;;;;;19.56;100.00;100494.39;107384;1247;59092;-78
2022/08/18 01:02:30;;;;;;;25.50;18.20;;;;;;;19.57;100.00;100493.02;107651;1247;73053;-82
2022/08/18 01:05:29;;;;;;;24.50;18.10;;;;;;;19.55;100.00;100494.14;107591;1247;57878;-79
2022/08/18 01:07:58;;;;;;;25.90;18.90;;;;;;;19.54;100.00;100497.33;107463;1247;61282;-77
2022/08/18 01:10:27;;;;;;;24.00;17.40;;;;;;;19.54;100.00;100492.90;107828;1247;63368;-77
2022/08/18 01:12:58;;;;;;;26.90;18.70;;;;;;;19.53;100.00;100489.98;107543;1248;70581;-76
2022/08/18 01:15:27;;;;;;;26.40;18.20;;;;;;;19.51;100.00;100488.10;107768;1247;59532;-78
2022/08/18 01:24:18;;;;;;;24.70;18.70;;;;;;;19.52;100.00;100490.63;107810;1247;60336;-78
2022/08/18 01:26:49;;;;;;;25.90;18.80;;;;;;;19.54;100.00;100493.36;107648;1248;63598;-76
2022/08/18 01:29:19;;;;;;;29.50;18.70;;;;;;;19.55;100.00;100491.16;107429;1247;72330;-78
2022/08/18 01:31:55;;;;;;;23.80;18.70;;;;;;;19.58;100.00;100488.52;107487;1250;69785;-79
2022/08/18 01:34:27;;;;;;;26.60;19.60;;;;;;;19.58;100.00;100487.10;107447;1247;62996;-77
2022/08/18 01:36:56;;;;;;;24.80;18.20;;;;;;;19.56;100.00;100487.71;107444;1248;62229;-78
2022/08/18 01:39:25;;;;;;;26.90;18.60;;;;;;;19.54;100.00;100492.16;107640;1247;61075;-76
2022/08/18 01:42:16;;;;;;;28.80;19.80;;;;;;;19.55;100.00;100491.69;107496;1248;72982;-74
2022/08/18 01:44:47;;;;;;;23.70;16.30;;;;;;;19.56;100.00;100494.90;108681;1246;72060;-76
2022/08/18 01:47:17;;;;;;;24.40;18.00;;;;;;;19.55;100.00;100495.52;107672;1248;69969;-78
2022/08/18 01:49:46;;;;;;;25.20;19.10;;;;;;;19.52;100.00;100493.08;107466;1248;73537;-78
2022/08/18 01:52:20;;;;;;;26.80;19.20;;;;;;;19.54;100.00;100496.20;107727;1247;59136;-78
2022/08/18 01:54:52;;;;;;;26.90;18.10;;;;;;;19.56;100.00;100497.14;107813;1247;59068;-80
2022/08/18 01:57:21;;;;;;;23.80;17.30;;;;;;;19.60;100.00;100501.02;107823;1247;74444;-79
2022/08/18 01:59:50;;;;;;;24.00;17.50;;;;;;;19.64;100.00;100500.61;107414;1248;72157;-78
2022/08/18 02:02:26;;;;;;;25.00;17.90;;;;;;;19.65;100.00;100499.27;107642;1247;60759;-79
2022/08/18 02:05:01;;;;;;;26.00;18.20;;;;;;;19.65;100.00;100498.52;107531;1247;63198;-77
2022/08/18 02:07:30;;;;;;;23.40;17.50;;;;;;;19.65;100.00;100498.85;107410;1248;59521;-76
2022/08/18 02:10:09;;;;;;;22.30;17.40;;;;;;;19.65;100.00;100504.31;107440;1247;59647;-75
2022/08/18 02:12:40;;;;;;;20.70;15.20;;;;;;;19.69;100.00;100507.31;107410;1247;64722;-74
2022/08/18 02:15:11;;;;;;;24.50;17.00;;;;;;;19.65;100.00;100505.48;107259;1248;60795;-76
2022/08/18 02:17:43;;;;;;;23.60;16.30;;;;;;;19.65;100.00;100508.42;107397;1247;70616;-74
2022/08/18 02:20:16;;;;;;;24.20;17.60;;;;;;;19.66;100.00;100507.42;107440;1247;63748;-74
2022/08/18 02:22:47;;;;;;;21.80;16.60;;;;;;;19.66;100.00;100504.24;107405;1247;59010;-82
2022/08/18 02:25:16;;;;;;;17.90;14.90;;;;;;;19.66;100.00;100506.03;107396;1247;58195;-77
2022/08/18 02:27:46;;;;;;;20.80;16.70;;;;;;;19.68;100.00;100503.83;107419;1248;63535;-78
2022/08/18 02:30:17;;;;;;;20.30;16.20;;;;;;;19.64;100.00;100505.22;107453;1247;71411;-76
2022/08/18 02:32:47;;;;;;;20.90;15.90;;;;;;;19.64;100.00;100509.29;107449;1247;59664;-75
2022/08/18 02:35:17;;;;;;;21.80;16.50;;;;;;;19.63;100.00;100505.82;107409;1247;73878;-76
2022/08/18 02:37:46;;;;;;;22.10;16.70;;;;;;;19.61;100.00;100506.05;107388;1247;63170;-78
2022/08/18 02:40:17;;;;;;;19.90;15.40;;;;;;;19.58;100.00;100509.21;107460;1247;61924;-77
2022/08/18 02:42:46;;;;;;;21.80;16.30;;;;;;;19.57;100.00;100514.21;107505;1247;64724;-76
2022/08/18 02:45:15;;;;;;;20.60;14.90;;;;;;;19.54;100.00;100515.48;107530;1247;61550;-78
2022/08/18 02:47:44;;;;;;;21.00;15.20;;;;;;;19.55;100.00;100516.80;107639;1247;61667;-76
2022/08/18 02:50:15;;;;;;;20.00;15.00;;;;;;;19.57;100.00;100520.24;107463;1247;62979;-75
2022/08/18 02:52:44;;;;;;;18.90;15.00;;;;;;;19.56;100.00;100522.32;107263;1247;59081;-78
2022/08/18 02:55:14;;;;;;;20.70;15.30;;;;;;;19.56;100.00;100523.54;107590;1247;59545;-78
2022/08/18 02:57:46;;;;;;;19.70;15.00;;;;;;;19.55;100.00;100524.17;107471;1247;63389;-76
2022/08/18 03:00:18;;;;;;;19.60;15.40;;;;;;;19.52;100.00;100525.20;107588;1247;72173;-79
2022/08/18 03:02:50;;;;;;;20.50;14.80;;;;;;;19.51;100.00;100528.66;107542;1248;61027;-78
2022/08/18 03:05:19;;;;;;;19.30;14.70;;;;;;;19.55;100.00;100529.84;107547;1247;73935;-77
2022/08/18 03:07:49;;;;;;;19.60;15.00;;;;;;;19.55;100.00;100527.15;107447;1248;63281;-76
2022/08/18 03:10:18;;;;;;;21.20;15.10;;;;;;;19.55;100.00;100529.09;107435;1250;58377;-75
2022/08/18 03:13:02;;;;;;;20.10;15.10;;;;;;;19.52;100.00;100528.70;107532;1247;74409;-76
2022/08/18 03:15:31;;;;;;;20.10;14.80;;;;;;;19.54;100.00;100534.68;107328;1250;62599;-77
2022/08/18 03:18:00;;;;;;;20.00;14.50;;;;;;;19.47;100.00;100531.08;107550;1247;70500;-75
2022/08/18 03:20:28;;;;;;;19.60;14.30;;;;;;;19.53;100.00;100541.91;107411;1250;74824;-76
2022/08/18 03:22:59;;;;;;;18.30;14.10;;;;;;;19.54;100.00;100544.77;107476;1248;63024;-78
2022/08/18 03:25:48;;;;;;;18.40;14.90;;;;;;;19.54;100.00;100547.95;107595;1247;59492;-77
2022/08/18 03:28:17;;;;;;;23.40;14.90;;;;;;;19.51;100.00;100545.59;107613;1247;63807;-79
2022/08/18 03:30:46;;;;;;;20.00;15.20;;;;;;;19.51;100.00;100542.81;107646;1247;72234;-82
2022/08/18 03:33:15;;;;;;;21.10;14.90;;;;;;;19.49;100.00;100541.95;107470;1247;69620;-75
2022/08/18 03:35:43;;;;;;;18.70;14.50;;;;;;;19.53;100.00;100539.80;107553;1247;73297;-73
2022/08/18 03:38:15;;;;;;;23.80;15.20;;;;;;;19.54;100.00;100540.05;107590;1247;59256;-79
2022/08/18 03:40:51;;;;;;;21.20;14.50;;;;;;;19.55;100.00;100542.66;107667;1250;59016;-78
2022/08/18 03:43:20;;;;;;;18.40;13.70;;;;;;;19.55;100.00;100548.18;107407;1248;63001;-79
2022/08/18 03:46:13;;;;;;;23.70;14.60;;;;;;;19.58;100.00;100546.48;107371;1250;60700;-77
2022/08/18 03:48:44;;;;;;;19.60;14.30;;;;;;;19.62;100.00;100543.34;107607;1247;59991;-76
2022/08/18 03:51:24;;;;;;;24.00;14.80;;;;;;;19.65;99.96;100543.73;107602;1247;63514;-75
2022/08/18 03:53:59;;;;;;;20.40;15.30;;;;;;;19.68;99.86;100543.63;107642;1247;62062;-74
2022/08/18 03:56:39;;;;;;;19.60;14.10;;;;;;;19.67;99.95;100544.20;107461;1248;60928;-75
2022/08/18 03:59:18;;;;;;;20.80;14.70;;;;;;;19.74;99.51;100546.80;107624;1247;63561;-74
2022/08/18 04:01:50;;;;;;;19.70;14.40;;;;;;;19.77;99.36;100551.05;107574;1247;71265;-74
2022/08/18 04:04:23;;;;;;;19.90;14.30;;;;;;;19.78;99.08;100550.05;107760;1247;71024;-77
2022/08/18 04:06:57;;;;;;;19.20;13.60;;;;;;;19.79;99.11;100548.09;107678;1247;73300;-76
2022/08/18 04:09:28;;;;;;;18.40;13.60;;;;;;;19.75;99.20;100547.52;107664;1247;63755;-75
2022/08/18 04:12:04;;;;;;;18.90;14.30;;;;;;;19.75;99.12;100550.02;107831;1247;57925;-75
2022/08/18 04:14:34;;;;;;;19.30;14.20;;;;;;;19.81;98.67;100546.33;107660;1247;62808;-74
2022/08/18 04:17:03;;;;;;;20.00;12.50;;;;;;;19.69;99.20;100547.20;107542;1247;72166;-70
2022/08/18 04:19:33;;;;;;;16.60;12.60;;;;;;;19.78;98.57;100555.02;107479;1247;70567;-71
2022/08/18 04:22:03;;;;;;;20.80;13.70;;;;;;;19.81;97.94;100557.82;107636;1247;63641;-72
2022/08/18 04:24:33;;;;;;;18.70;13.80;;;;;;;19.84;97.71;100557.95;107581;1247;59537;-71
2022/08/18 04:27:03;;;;;;;18.80;13.20;;;;;;;19.78;97.86;100560.13;107604;1247;61102;-80
2022/08/18 04:29:32;;;;;;;19.40;14.00;;;;;;;19.83;97.31;100563.64;107332;1248;64252;-71
2022/08/18 04:32:03;;;;;;;17.10;13.50;;;;;;;19.85;97.34;100561.74;107582;1246;60867;-71
2022/08/18 04:34:33;;;;;;;17.20;13.60;;;;;;;19.89;97.22;100563.84;107595;1247;59112;-71
2022/08/18 04:37:02;;;;;;;16.40;13.00;;;;;;;19.86;97.74;100567.10;107626;1247;73095;-71
2022/08/18 04:39:30;;;;;;;17.30;13.30;;;;;;;19.95;97.18;100568.23;107418;1247;62566;-72
2022/08/18 04:42:02;;;;;;;19.50;13.40;;;;;;;20.00;96.95;100565.23;107498;1248;61654;-70
2022/08/18 04:44:31;;;;;;;20.30;13.60;;;;;;;19.96;97.02;100561.98;107486;1250;63544;-71
2022/08/18 04:47:00;;;;;;;20.50;13.60;;;;;;;19.89;97.55;100560.74;107417;1247;72426;-72
2022/08/18 04:49:30;;;;;;;19.40;14.30;;;;;;;20.06;96.76;100565.91;107290;1250;61046;-70
2022/08/18 04:55:07;;;;;;;18.60;14.00;;;;;;;20.12;95.95;100572.14;107543;1247;62586;-65
2022/08/18 04:57:37;;;;;;;20.30;13.90;;;;;;;20.13;95.98;100565.15;107356;1250;59461;-71
2022/08/18 05:00:12;;;;;;;19.40;13.70;;;;;;;20.23;95.42;100569.09;107564;1247;74236;-67
2022/08/18 05:02:41;;;;;;;16.70;12.40;;;;;;;20.16;95.75;100567.77;107338;1247;71397;-72
2022/08/18 05:05:10;;;;;;;15.30;11.80;;;;;;;20.23;95.44;100565.39;107377;1247;71718;-75
2022/08/18 05:07:44;;;;;;;18.60;12.80;;;;;;;20.26;95.15;100566.28;107227;1248;74279;-72
2022/08/18 05:10:16;;;;;;;17.40;12.70;;;;;;;20.26;95.32;100565.40;107534;1247;59546;-78
2022/08/18 05:12:47;;;;;;;17.90;13.20;;;;;;;20.29;95.24;100565.89;107302;1250;57800;-79
2022/08/18 05:15:18;;;;;;;15.90;13.50;;;;;;;20.17;95.78;100564.25;107593;1247;74467;-79
2022/08/18 05:17:48;;;;;;;19.00;13.20;;;;;;;20.31;94.55;100561.10;107746;1247;72621;-79
2022/08/18 05:20:19;;;;;;;18.30;12.90;;;;;;;20.25;94.72;100567.15;107555;1250;59781;-81
2022/08/18 05:22:48;;;;;;;15.30;12.70;;;;;;;20.23;94.58;100565.92;107584;1250;63274;-78
2022/08/18 05:25:17;;;;;;;18.90;13.00;;;;;;;20.24;94.59;100567.22;107532;1248;59657;-79
2022/08/18 05:27:46;;;;;;;18.20;12.90;;;;;;;20.26;94.35;100564.67;107518;1247;60460;-81
2022/08/18 05:30:15;;;;;;;17.50;13.20;;;;;;;20.19;94.97;100561.55;107575;1247;73749;-80
2022/08/18 05:32:46;;;;;;;17.50;12.60;;;;;;;20.28;94.41;100564.40;107509;1248;71136;-79
2022/08/18 05:35:24;;;;;;;17.70;13.50;;;;;;;20.34;94.05;100567.44;107564;1250;59714;-79
2022/08/18 05:38:50;;;;;;;19.80;13.10;;;;;;;20.32;94.14;100569.64;107768;1247;74182;-78
2022/08/18 05:41:40;;;;;;;18.70;13.30;;;;;;;20.28;94.54;100570.47;107619;1247;62441;-79
2022/08/18 05:44:14;;;;;;;16.70;12.90;;;;;;;20.39;93.72;100570.63;107724;1247;62132;-79
2022/08/18 05:46:52;;;;;;;18.60;13.50;;;;;;;20.44;93.64;100572.30;107452;1249;64282;-78
2022/08/18 05:49:23;;;;;;;16.30;12.10;;;;;;;20.52;93.70;100572.70;107571;1248;71470;-78
2022/08/18 05:52:25;;;;;;;15.50;12.00;;;;;;;20.61;92.56;100568.25;107500;1250;59939;-78
2022/08/18 05:58:07;;;;;;;17.70;12.70;;;;;;;20.62;92.32;100578.95;107640;1248;59637;-80
2022/08/18 06:00:36;;;;;;;14.50;11.70;;;;;;;20.67;92.24;100578.52;107747;1247;57797;-77
2022/08/18 06:03:28;;;;;;;15.50;12.50;;;;;;;20.66;92.23;100580.66;107492;1250;63068;-79
2022/08/18 06:06:24;;;;;;;19.90;12.40;;;;;;;20.80;91.90;100587.70;107310;1247;71577;-78
2022/08/18 06:09:09;;;;;;;15.30;11.60;;;;;;;20.91;91.38;100589.58;107535;1248;60174;-79
2022/08/18 06:11:38;;;;;;;15.00;11.50;;;;;;;20.95;90.81;100588.09;107546;1247;62488;-81
2022/08/18 06:14:07;;;;;;;15.40;11.40;;;;;;;21.07;90.53;100591.95;107623;1248;61694;-81
2022/08/18 06:16:35;;;;;;;14.40;11.20;;;;;;;21.16;89.39;100590.23;107766;1247;61025;-81
2022/08/18 06:19:16;;;;;;;15.80;11.20;;;;;;;21.34;89.36;100591.58;107713;1248;64375;-82
2022/08/18 06:22:02;;;;;;;15.90;12.20;;;;;;;21.39;88.66;100589.70;107722;1247;60886;-77
2022/08/18 06:24:57;;;;;;;15.80;11.80;;;;;;;21.55;88.33;100589.61;107583;1248;59498;-80
2022/08/18 06:28:11;;;;;;;13.10;11.00;;;;;;;21.77;87.79;100592.42;107601;1247;73185;-80
2022/08/18 06:31:21;;;;;;;13.60;10.40;;;;;;;21.84;86.74;100600.80;107596;1250;63201;-80
2022/08/18 06:34:41;;;;;;;19.20;12.20;;;;;;;21.78;87.22;100601.21;107489;1249;62181;-81
2022/08/18 06:38:37;;;;;;;15.00;11.40;;;;;;;21.85;87.62;100600.20;107551;1250;73825;-81
2022/08/18 06:40:28;;;;;;;15.10;11.40;;;;;;;21.93;86.44;100601.27;107585;1250;72237;-80
2022/08/18 06:42:56;;;;;;;14.00;11.70;;;;;;;22.01;86.05;100599.07;107517;1249;70878;-76
2022/08/18 06:45:38;;;;;;;15.90;12.20;;;;;;;22.00;85.79;100597.83;107675;1250;63777;-77
2022/08/18 06:48:31;;;;;;;16.90;12.10;;;;;;;21.94;85.84;100597.06;107459;1250;59628;-74
2022/08/18 06:51:03;;;;;;;15.50;11.60;;;;;;;22.18;85.81;100593.45;107526;1247;59550;-73
2022/08/18 06:53:59;;;;;;;15.40;11.00;;;;;;;22.37;85.06;100599.26;107737;1248;73788;-77
2022/08/18 06:56:39;;;;;;;16.00;11.50;;;;;;;22.50;84.36;100599.09;108038;1247;72704;-72
2022/08/18 06:59:30;;;;;;;14.90;11.50;;;;;;;22.59;83.40;100601.00;107820;1247;60801;-74
2022/08/18 07:02:21;;;;;;;17.70;11.20;;;;;;;22.59;83.11;100601.91;107675;1247;63313;-72
2022/08/18 07:05:14;;;;;;;16.00;10.90;;;;;;;22.69;82.78;100606.59;107565;1247;63095;-74
2022/08/18 07:07:43;;;;;;;16.10;11.20;;;;;;;22.76;82.14;100610.36;107532;1247;59465;-74
2022/08/18 07:10:15;;;;;;;15.00;11.10;;;;;;;22.73;81.90;100609.98;107574;1247;63765;-73
2022/08/18 07:12:43;;;;;;;18.50;11.80;;;;;;;22.61;82.25;100610.98;107543;1247;61605;-76
2022/08/18 07:15:22;;;;;;;12.60;10.40;;;;;;;22.65;82.23;100615.77;107610;1248;59957;-81
2022/08/18 07:18:01;;;;;;;12.20;10.00;;;;;;;22.76;82.12;100616.02;107253;1247;73993;-74
2022/08/18 07:20:30;;;;;;;16.40;11.90;;;;;;;22.83;81.20;100613.59;107454;1247;59706;-75
2022/08/18 07:23:03;;;;;;;12.70;11.10;;;;;;;22.89;80.27;100610.15;107579;1247;58329;-75
2022/08/18 07:25:45;;;;;;;13.00;9.60;;;;;;;22.95;80.52;100615.13;107591;1247;74394;-75
2022/08/18 07:28:29;;;;;;;12.70;10.90;;;;;;;23.02;79.98;100612.56;107502;1247;61552;-73
2022/08/18 07:31:26;;;;;;;14.10;11.00;;;;;;;22.98;79.85;100610.67;107549;1247;60064;-75
2022/08/18 07:34:00;;;;;;;14.40;10.40;;;;;;;23.08;79.11;100606.70;107537;1247;72144;-75
2022/08/18 07:36:49;;;;;;;14.90;10.10;;;;;;;23.18;78.55;100606.11;107606;1247;63859;-74
2022/08/18 07:39:35;;;;;;;12.70;10.40;;;;;;;23.27;78.30;100599.31;107702;1247;62280;-75
2022/08/18 07:42:43;;;;;;;12.10;9.70;;;;;;;23.07;78.72;100601.61;107842;1246;63702;-74
2022/08/18 07:45:43;;;;;;;14.00;9.90;;;;;;;23.36;77.18;100597.65;107764;1247;71086;-74
2022/08/18 07:48:15;;;;;;;13.40;9.60;;;;;;;23.46;77.29;100604.94;107783;1247;59734;-75
2022/08/18 07:51:14;;;;;;;12.10;9.10;;;;;;;23.46;76.74;100596.49;107737;1247;72671;-74
2022/08/18 07:54:04;;;;;;;13.90;9.30;;;;;;;23.49;76.34;100595.52;107844;1247;63516;-76
2022/08/18 07:57:05;;;;;;;14.70;9.10;;;;;;;23.53;75.81;100594.28;107582;1247;61687;-74
2022/08/18 08:00:08;;;;;;;11.40;9.50;;;;;;;23.71;74.80;100591.84;107834;1247;74172;-74
2022/08/18 08:02:59;;;;;;;11.90;9.40;;;;;;;23.85;75.12;100598.25;107688;1247;62170;-75
2022/08/18 08:06:24;;;;;;;11.30;9.90;;;;;;;23.93;74.50;100598.10;107716;1247;59046;-76
2022/08/18 08:09:15;;;;;;;15.10;10.10;;;;;;;24.20;74.10;100599.44;107654;1247;63962;-74
2022/08/18 08:12:04;;;;;;;11.50;8.60;;;;;;;24.47;73.10;100599.67;107710;1247;62922;-74
2022/08/18 08:14:43;;;;;;;11.00;9.10;;;;;;;24.58;70.65;100600.58;107795;1247;62440;-75
2022/08/18 08:17:32;;;;;;;11.90;8.80;;;;;;;24.59;70.78;100597.83;107734;1247;66538;-75
2022/08/18 08:20:20;;;;;;;11.60;8.90;;;;;;;24.66;71.17;100593.67;107687;1247;72029;-75
2022/08/18 08:23:29;;;;;;;10.10;8.90;;;;;;;24.65;71.05;100593.63;107734;1247;59631;-74
2022/08/18 08:26:04;;;;;;;11.30;9.20;;;;;;;24.75;70.56;100596.50;107904;1247;62409;-76
2022/08/18 08:29:10;;;;;;;12.90;9.30;;;;;;;24.79;70.20;100597.77;107586;1247;62943;-74
2022/08/18 08:32:02;;;;;;;11.40;9.00;;;;;;;24.87;70.09;100599.42;107661;1247;59438;-76
2022/08/18 08:34:58;;;;;;;13.70;8.70;;;;;;;24.87;69.86;100602.82;107730;1247;63018;-75
2022/08/18 08:37:48;;;;;;;12.10;9.70;;;;;;;24.72;69.66;100602.36;107597;1245;71476;-76
2022/08/18 08:40:21;;;;;;;15.30;9.30;;;;;;;24.68;69.91;100603.62;107668;1247;60452;-76
2022/08/18 08:43:14;;;;;;;;;;;;;;;24.68;70.37;100598.23;107557;1247;73095;-75
2022/08/18 08:46:07;;;;;;;13.10;9.40;;;;;;;24.62;70.86;100602.64;107717;1247;59516;-74
2022/08/18 08:48:50;;;;;;;11.70;9.30;;;;;;;24.77;70.15;100601.52;107721;1247;60266;-77
2022/08/18 08:51:48;;;;;;;10.50;8.60;;;;;;;24.77;69.90;100598.29;107585;1247;76171;-75
2022/08/18 08:54:57;;;;;;;10.60;9.30;;;;;;;24.88;69.79;100606.29;107636;1247;61478;-76
2022/08/18 08:57:44;;;;;;;12.30;9.40;;;;;;;24.83;69.48;100600.82;107589;1248;60035;-76
2022/08/18 09:00:14;;;;;;;10.40;9.20;;;;;;;24.68;69.55;100601.11;107624;1247;71529;-76
2022/08/18 09:03:37;;;;;;;12.10;9.00;;;;;;;24.67;69.44;100600.50;107618;1247;61638;-75
2022/08/18 09:06:36;;;;;;;11.70;9.50;;;;;;;24.57;69.96;100605.39;107059;1254;60857;-77
2022/08/18 09:09:35;;;;;;;13.10;9.10;;;;;;;24.64;69.58;100598.28;107580;1247;74280;-76
2022/08/18 09:12:38;;;;;;;12.80;9.20;;;;;;;24.71;69.42;100598.86;107642;1247;72789;-75
2022/08/18 09:16:03;;;;;;;13.40;10.20;;;;;;;24.77;69.67;100596.44;107623;1247;70938;-76
2022/08/18 09:19:10;;;;;;;9.80;8.50;;;;;;;25.22;69.17;100598.40;107819;1246;75040;-72
2022/08/18 09:21:52;;;;;;;13.10;9.60;;;;;;;25.50;67.39;100596.67;107870;1247;59458;-76
2022/08/18 09:24:23;;;;;;;12.20;9.00;;;;;;;25.64;66.38;100594.77;107767;1247;61196;-74
2022/08/18 09:27:02;;;;;;;11.50;8.60;;;;;;;25.59;66.40;100593.39;107807;1247;64403;-75
2022/08/18 09:29:37;;;;;;;11.10;8.40;;;;;;;25.85;64.57;100592.77;107616;1247;71524;-75
2022/08/18 09:32:18;;;;;;;10.00;7.80;;;;;;;25.93;64.59;100591.90;107628;1247;68535;-76
2022/08/18 09:35:33;;;;;;;9.10;6.60;;;;;;;26.06;63.62;100593.67;107735;1247;73752;-75
2022/08/18 09:41:32;;;;;;;11.10;8.00;;;;;;;26.16;62.36;100585.20;107640;1247;59510;-73
2022/08/18 09:44:09;;;;;;;10.60;8.40;;;;;;;26.14;61.95;100589.42;107634;1247;65600;-73
2022/08/18 09:46:59;;;;;;;10.70;8.00;;;;;;;26.35;61.56;100583.34;107559;1246;62601;-73
2022/08/18 09:49:29;;;;;;;10.40;8.70;;;;;;;26.39;61.49;100576.77;107665;1247;70825;-74
2022/08/18 09:52:25;;;;;;;11.60;8.30;;;;;;;26.49;61.62;100572.83;107571;1247;63130;-74
2022/08/18 09:55:06;;;;;;;8.70;7.80;;;;;;;26.86;60.54;100566.94;107454;1247;60600;-73
2022/08/18 09:57:38;;;;;;;7.90;7.10;;;;;;;27.10;59.16;100563.66;107648;1247;58180;-74
2022/08/18 10:00:14;;;;;;;10.90;8.10;;;;;;;27.20;58.66;100567.48;107486;1248;63799;-73
2022/08/18 10:02:42;;;;;;;9.60;7.80;;;;;;;27.40;57.98;100559.50;107639;1247;71575;-73
2022/08/18 10:05:34;;;;;;;10.50;7.90;;;;;;;27.40;58.15;100564.45;107633;1247;59553;-74
2022/08/18 10:08:05;;;;;;;12.00;8.90;;;;;;;27.42;58.56;100562.08;107476;1247;73882;-72
2022/08/18 10:10:41;;;;;;;9.20;7.90;;;;;;;27.49;57.92;100566.65;107578;1247;61005;-72
2022/08/18 10:14:04;;;;;;;13.90;7.70;;;;;;;27.50;56.94;100573.20;107450;1249;60068;-74
2022/08/18 10:17:25;;;;;;;9.00;7.80;;;;;;;27.37;57.35;100566.87;107280;1250;73696;-74
2022/08/18 10:20:41;;;;;;;12.30;9.00;;;;;;;27.13;58.57;100571.52;107493;1248;71078;-72
2022/08/18 10:23:10;;;;;;;12.20;9.00;;;;;;;26.94;59.92;100572.92;107222;1249;70561;-74
2022/08/18 10:25:46;;;;;;;10.20;8.70;;;;;;;26.98;60.61;100576.98;107363;1248;74361;-74
2022/08/18 10:28:56;;;;;;;9.10;7.90;;;;;;;27.44;59.52;100578.96;107498;1247;61993;-73
2022/08/18 10:31:27;;;;;;;10.90;8.90;;;;;;;27.95;57.69;100568.42;107609;1247;60308;-74
2022/08/18 10:34:10;;;;;;;10.50;8.00;;;;;;;28.27;56.08;100563.89;107583;1247;63612;-71
2022/08/18 10:36:57;;;;;;;14.30;8.00;;;;;;;28.58;55.31;100566.46;107466;1247;61576;-72
2022/08/18 10:39:52;;;;;;;9.50;7.70;;;;;;;28.70;54.22;100570.36;107479;1249;69718;-74
2022/08/18 10:42:39;;;;;;;11.50;8.70;;;;;;;28.96;54.65;100565.75;107514;1247;73741;-72
2022/08/18 10:45:55;;;;;;;10.40;7.40;;;;;;;29.37;53.95;100563.70;107552;1247;58926;-73
2022/08/18 10:49:01;;;;;;;10.00;7.60;;;;;;;29.04;53.33;100566.89;107575;1247;60717;-73
2022/08/18 10:52:13;;;;;;;13.50;8.10;;;;;;;28.88;53.70;100569.58;107394;1247;74050;-71
2022/08/18 10:54:53;;;;;;;10.70;7.60;;;;;;;28.94;53.18;100566.99;107531;1247;62020;-72
2022/08/18 10:57:40;;;;;;;10.80;8.30;;;;;;;28.93;52.57;100567.70;107301;1247;59295;-75
2022/08/18 11:00:18;;;;;;;9.80;8.30;;;;;;;28.99;53.55;100567.90;107503;1247;73881;-71
2022/08/18 11:02:59;;;;;;;10.60;8.50;;;;;;;29.48;52.60;100565.09;107802;1247;61529;-71
2022/08/18 11:05:47;;;;;;;12.00;8.20;;;;;;;29.74;51.94;100568.56;107443;1247;59601;-72
2022/08/18 11:08:20;;;;;;;13.80;7.90;;;;;;;29.81;51.13;100566.38;107239;1247;75424;-73
2022/08/18 11:10:53;;;;;;;12.30;8.00;;;;;;;29.66;50.85;100567.11;107484;1247;61443;-73
2022/08/18 11:14:02;;;;;;;10.30;7.90;;;;;;;29.47;51.81;100558.86;107514;1247;70575;-74
2022/08/18 11:17:30;;;;;;;14.20;8.50;;;;;;;29.24;52.11;100556.39;107522;1247;63633;-72
2022/08/18 11:20:01;;;;;;;12.50;8.20;;;;;;;28.86;53.13;100550.35;107424;1247;59626;-72
2022/08/18 11:22:34;;;;;;;8.60;7.20;;;;;;;28.63;53.37;100547.58;107566;1248;59053;-75
2022/08/18 11:25:28;;;;;;;13.00;7.90;;;;;;;28.58;53.90;100542.77;107637;1247;73603;-73
2022/08/18 11:27:58;;;;;;;12.00;7.20;;;;;;;28.84;54.13;100535.08;107447;1247;71788;-73
2022/08/18 11:30:36;;;;;;;10.50;7.50;;;;;;;29.49;52.46;100537.01;106032;1247;2110360;-75
2022/08/18 11:33:12;;;;;;;9.20;7.70;;;;;;;29.36;52.32;100533.58;107485;1250;62917;-74
2022/08/18 11:35:58;;;;;;;10.20;7.70;;;;;;;29.59;52.26;100529.02;107279;1250;59545;-73
2022/08/18 11:38:30;;;;;;;10.60;7.40;;;;;;;29.32;52.82;100537.94;107510;1247;60804;-74
2022/08/18 11:41:18;;;;;;;11.90;8.10;;;;;;;28.31;55.82;100531.60;107375;1249;75321;-74
2022/08/18 11:43:54;;;;;;;10.00;7.50;;;;;;;27.93;56.15;100531.86;107725;1247;61643;-74
2022/08/18 11:46:30;;;;;;;12.10;7.90;;;;;;;27.40;56.89;100531.72;107706;1247;70863;-74
2022/08/18 11:49:31;;;;;;;14.00;8.20;;;;;;;27.37;57.39;100533.92;107496;1247;72781;-74
2022/08/18 11:52:16;;;;;;;9.80;7.30;;;;;;;27.79;57.93;100533.98;107622;1247;61174;-74
2022/08/18 11:55:18;;;;;;;10.70;7.60;;;;;;;28.75;55.78;100523.73;107563;1248;59655;-74
2022/08/18 11:57:55;;;;;;;10.30;7.20;;;;;;;29.74;52.99;100518.73;107608;1248;62915;-73
2022/08/18 12:00:56;;;;;;;14.00;7.30;;;;;;;30.40;48.18;100514.25;107653;1247;60876;-72
2022/08/18 12:03:47;;;;;;;11.00;7.90;;;;;;;30.37;47.74;100514.87;107889;1247;59028;-74
2022/08/18 12:06:30;;;;;;;11.60;7.20;;;;;;;30.22;47.97;100521.16;107878;1247;73092;-73
2022/08/18 12:09:26;;;;;;;9.60;6.90;;;;;;;30.11;47.38;100514.06;107481;1248;59634;-72
2022/08/18 12:12:31;;;;;;;8.80;6.30;;;;;;;30.40;46.44;100510.93;107669;1247;58315;-73
2022/08/18 12:15:12;;;;;;;8.40;6.60;;;;;;;31.03;45.43;100497.67;107678;1247;74442;-73
2022/08/18 12:17:51;;;;;;;9.30;6.80;;;;;;;31.32;43.80;100488.99;107558;1247;61426;-74
2022/08/18 12:20:21;;;;;;;8.60;6.20;;;;;;;31.70;43.30;100490.03;107522;1247;60354;-74